createdAt,value
2019-05-20T00:01:07.059Z,13.60
2019-05-20T00:03:35.850Z,13.65
2019-05-20T00:06:05.232Z,13.56
2019-05-20T00:08:34.040Z,13.56
2019-05-20T00:11:02.818Z,13.47
2019-05-20T00:13:31.560Z,13.41
2019-05-20T00:16:00.327Z,13.32
2019-05-20T00:18:29.103Z,13.23
2019-05-20T00:20:57.852Z,13.22
2019-05-20T00:23:26.644Z,13.22
2019-05-20T00:25:55.411Z,13.19
2019-05-20T00:28:24.215Z,13.15
2019-05-20T00:30:52.965Z,13.17
2019-05-20T00:33:21.765Z,13.12
2019-05-20T00:35:50.573Z,13.13
2019-05-20T00:38:19.321Z,13.02
2019-05-20T00:40:48.061Z,13.05
2019-05-20T00:43:16.825Z,13.02
2019-05-20T00:45:45.560Z,13.00
2019-05-20T00:48:14.337Z,12.96
2019-05-20T00:50:43.009Z,13.00
2019-05-20T00:53:11.825Z,12.98
2019-05-20T00:55:41.967Z,13.02
2019-05-20T00:58:10.804Z,13.03
2019-05-20T01:00:40.322Z,12.97
2019-05-20T01:03:09.140Z,12.97
2019-05-20T01:05:37.918Z,12.96
2019-05-20T01:08:06.790Z,12.94
2019-05-20T01:10:35.617Z,12.98
2019-05-20T01:13:05.150Z,12.98
2019-05-20T01:15:34.033Z,13.01
2019-05-20T01:18:02.904Z,13.06
2019-05-20T01:20:31.641Z,13.14
2019-05-20T01:23:00.401Z,13.16
2019-05-20T01:25:29.165Z,13.13
2019-05-20T01:27:57.975Z,13.06
2019-05-20T01:30:26.715Z,13.09
2019-05-20T01:32:55.470Z,13.05
2019-05-20T01:35:24.365Z,13.04
2019-05-20T01:37:53.106Z,13.09
2019-05-20T01:40:21.920Z,13.11
2019-05-20T01:42:50.803Z,13.17
2019-05-20T01:45:19.549Z,13.29
2019-05-20T01:47:48.299Z,13.43
2019-05-20T01:50:17.085Z,13.56
2019-05-20T01:52:46.058Z,13.73
2019-05-20T01:55:14.945Z,13.73
2019-05-20T01:57:43.687Z,13.77
2019-05-20T02:00:14.023Z,13.82
2019-05-20T02:02:43.091Z,13.82
2019-05-20T02:05:12.014Z,13.84
2019-05-20T02:07:40.774Z,13.88
2019-05-20T02:10:10.084Z,13.89
2019-05-20T02:12:38.829Z,13.88
2019-05-20T02:15:12.386Z,13.86
2019-05-20T02:17:41.342Z,13.85
2019-05-20T02:20:11.088Z,13.85
2019-05-20T02:22:39.844Z,13.82
2019-05-20T02:25:08.877Z,13.81
2019-05-20T02:27:37.622Z,13.73
2019-05-20T02:30:12.248Z,13.70
2019-05-20T02:32:41.142Z,13.72
2019-05-20T02:35:09.894Z,13.72
2019-05-20T02:37:38.589Z,13.69
2019-05-20T02:40:09.144Z,13.66
2019-05-20T02:42:37.844Z,13.64
2019-05-20T02:45:07.974Z,13.62
2019-05-20T02:47:36.762Z,13.61
2019-05-20T02:50:08.329Z,13.57
2019-05-20T02:52:37.124Z,13.62
2019-05-20T02:55:07.550Z,13.57
2019-05-20T02:57:36.351Z,13.60
2019-05-20T03:00:07.958Z,13.64
2019-05-20T03:02:36.845Z,13.54
2019-05-20T03:05:07.299Z,13.53
2019-05-20T03:07:36.133Z,13.51
2019-05-20T03:10:07.163Z,13.57
2019-05-20T03:12:36.013Z,13.52
2019-05-20T03:15:10.336Z,13.56
2019-05-20T03:17:39.094Z,13.50
2019-05-20T03:20:09.463Z,13.55
2019-05-20T03:22:38.268Z,13.53
2019-05-20T03:25:08.506Z,13.47
2019-05-20T03:27:37.396Z,13.49
2019-05-20T03:30:07.608Z,13.46
2019-05-20T03:32:36.531Z,13.44
2019-05-20T03:35:07.477Z,13.41
2019-05-20T03:37:36.271Z,13.40
2019-05-20T03:40:06.531Z,13.41
2019-05-20T03:42:35.432Z,13.40
2019-05-20T03:45:06.562Z,13.38
2019-05-20T03:47:35.350Z,13.35
2019-05-20T03:50:05.469Z,13.35
2019-05-20T03:52:34.238Z,13.33
2019-05-20T03:55:03.048Z,13.39
2019-05-20T03:57:31.842Z,13.38
2019-05-20T04:00:00.691Z,13.35
2019-05-20T04:02:29.434Z,13.35
2019-05-20T04:05:02.442Z,13.34
2019-05-20T04:07:28.765Z,13.31
2019-05-20T04:09:57.534Z,13.32
2019-05-20T04:12:26.446Z,13.27
2019-05-20T04:14:55.206Z,13.25
2019-05-20T04:17:23.993Z,13.23
2019-05-20T04:19:52.812Z,13.30
2019-05-20T04:22:21.601Z,13.30
2019-05-20T04:24:50.389Z,13.35
2019-05-20T04:27:19.135Z,13.40
2019-05-20T04:29:47.904Z,13.47
2019-05-20T04:32:16.661Z,13.45
2019-05-20T04:34:45.367Z,13.51
2019-05-20T04:37:14.281Z,13.55
2019-05-20T04:39:43.036Z,13.63
2019-05-20T04:42:11.783Z,13.60
2019-05-20T04:44:40.573Z,13.65
2019-05-20T04:47:09.385Z,13.68
2019-05-20T04:49:38.122Z,13.73
2019-05-20T04:52:06.919Z,13.79
2019-05-20T04:54:43.937Z,13.76
2019-05-20T04:57:13.178Z,13.79
2019-05-20T04:59:41.921Z,13.86
2019-05-20T05:02:10.681Z,13.91
2019-05-20T05:04:39.421Z,13.94
2019-05-20T05:07:08.558Z,13.93
2019-05-20T05:09:42.932Z,13.92
2019-05-20T05:12:11.993Z,13.92
2019-05-20T05:14:40.870Z,13.95
2019-05-20T05:17:09.615Z,13.93
2019-05-20T05:19:38.605Z,13.97
2019-05-20T05:22:07.496Z,13.99
2019-05-20T05:24:36.344Z,14.08
2019-05-20T05:27:05.500Z,14.08
2019-05-20T05:29:34.351Z,14.18
2019-05-20T05:32:03.105Z,14.14
2019-05-20T05:34:31.835Z,14.13
2019-05-20T05:37:00.594Z,14.20
2019-05-20T05:39:29.368Z,14.22
2019-05-20T05:41:58.120Z,14.24
2019-05-20T05:44:38.617Z,14.28
2019-05-20T05:47:07.457Z,14.31
2019-05-20T05:49:36.213Z,14.34
2019-05-20T05:52:05.211Z,14.33
2019-05-20T05:54:33.959Z,14.36
2019-05-20T05:57:02.829Z,14.39
2019-05-20T05:59:31.581Z,14.48
2019-05-20T06:02:00.330Z,14.54
2019-05-20T06:04:29.089Z,14.54
2019-05-20T06:06:57.868Z,14.60
2019-05-20T06:09:26.651Z,14.67
2019-05-20T06:11:55.394Z,14.71
2019-05-20T06:14:24.259Z,14.78
2019-05-20T06:16:53.108Z,14.84
2019-05-20T06:19:21.910Z,14.83
2019-05-20T06:21:50.706Z,14.93
2019-05-20T06:24:19.457Z,15.08
2019-05-20T06:26:48.219Z,15.07
2019-05-20T06:29:17.013Z,15.07
2019-05-20T06:31:45.753Z,15.10
2019-05-20T06:34:14.497Z,15.10
2019-05-20T06:36:45.007Z,15.16
2019-05-20T06:39:15.173Z,15.24
2019-05-20T06:41:43.938Z,15.24
2019-05-20T06:44:12.698Z,15.43
2019-05-20T06:46:41.441Z,15.48
2019-05-20T06:49:10.224Z,15.41
2019-05-20T06:51:38.970Z,15.46
2019-05-20T06:54:07.734Z,15.47
2019-05-20T06:56:37.528Z,15.51
2019-05-20T06:59:06.311Z,15.44
2019-05-20T07:01:35.074Z,15.34
2019-05-20T07:04:03.813Z,15.37
2019-05-20T07:06:45.374Z,15.34
2019-05-20T07:09:03.036Z,15.33
2019-05-20T07:11:31.907Z,15.31
2019-05-20T07:14:00.670Z,15.23
2019-05-20T07:16:29.490Z,15.29
2019-05-20T07:18:58.238Z,15.31
2019-05-20T07:21:26.983Z,15.54
2019-05-20T07:23:55.754Z,15.54
2019-05-20T07:26:24.634Z,15.62
2019-05-20T07:28:53.395Z,15.78
2019-05-20T07:31:22.129Z,15.70
2019-05-20T07:33:50.910Z,15.70
2019-05-20T07:36:19.674Z,15.83
2019-05-20T07:38:48.411Z,15.83
2019-05-20T07:41:17.194Z,15.83
2019-05-20T07:43:45.932Z,15.76
2019-05-20T07:46:16.637Z,15.77
2019-05-20T07:48:45.460Z,15.70
2019-05-20T07:51:14.919Z,15.82
2019-05-20T07:53:44.002Z,15.90
2019-05-20T07:56:21.945Z,16.07
2019-05-20T07:58:53.609Z,15.98
2019-05-20T08:01:23.037Z,15.98
2019-05-20T08:03:51.800Z,16.02
2019-05-20T08:06:20.552Z,16.05
2019-05-20T08:08:49.344Z,16.01
2019-05-20T08:11:18.020Z,16.22
2019-05-20T08:13:46.765Z,16.21
2019-05-20T08:16:15.529Z,16.09
2019-05-20T08:18:44.266Z,16.17
2019-05-20T08:21:13.153Z,16.22
2019-05-20T08:23:41.927Z,16.19
2019-05-20T08:26:10.705Z,16.14
2019-05-20T08:28:39.510Z,16.04
2019-05-20T08:31:08.329Z,15.97
2019-05-20T08:33:37.175Z,16.02
2019-05-20T08:36:05.961Z,16.16
2019-05-20T08:38:34.726Z,16.32
2019-05-20T08:41:03.658Z,16.31
2019-05-20T08:43:32.423Z,16.35
2019-05-20T08:46:01.194Z,16.35
2019-05-20T08:48:30.034Z,16.34
2019-05-20T08:50:58.786Z,16.34
2019-05-20T08:53:27.741Z,16.47
2019-05-20T08:55:56.581Z,16.31
2019-05-20T08:58:25.458Z,16.30
2019-05-20T09:00:54.324Z,16.38
2019-05-20T09:03:23.077Z,16.31
2019-05-20T09:05:52.537Z,16.47
2019-05-20T09:08:21.284Z,16.50
2019-05-20T09:10:50.060Z,16.41
2019-05-20T09:13:18.904Z,16.49
2019-05-20T09:15:47.639Z,16.39
2019-05-20T09:18:16.420Z,16.24
2019-05-20T09:20:45.166Z,16.29
2019-05-20T09:23:13.962Z,16.47
2019-05-20T09:25:42.688Z,16.50
2019-05-20T09:28:11.424Z,16.48
2019-05-20T09:30:40.200Z,16.48
2019-05-20T09:33:08.936Z,16.46
2019-05-20T09:35:37.695Z,16.49
2019-05-20T09:38:19.461Z,16.45
2019-05-20T09:40:45.861Z,16.54
2019-05-20T09:43:14.633Z,16.47
2019-05-20T09:45:43.285Z,16.63
2019-05-20T09:48:14.295Z,16.62
2019-05-20T09:50:43.208Z,16.69
2019-05-20T09:53:13.160Z,16.79
2019-05-20T09:55:41.904Z,16.73
2019-05-20T09:58:10.849Z,16.69
2019-05-20T10:00:39.516Z,16.73
2019-05-20T10:03:08.271Z,16.81
2019-05-20T10:05:37.786Z,16.80
2019-05-20T10:08:07.107Z,16.83
2019-05-20T10:10:35.972Z,16.77
2019-05-20T10:13:05.564Z,16.84
2019-05-20T10:15:34.425Z,16.81
2019-05-20T10:18:03.190Z,16.79
2019-05-20T10:20:32.029Z,16.92
2019-05-20T10:23:00.885Z,17.15
2019-05-20T10:25:29.645Z,17.49
2019-05-20T10:27:58.385Z,17.84
2019-05-20T10:30:27.147Z,17.92
2019-05-20T10:32:55.884Z,18.10
2019-05-20T10:35:24.754Z,18.34
2019-05-20T10:37:53.508Z,18.23
2019-05-20T10:40:22.350Z,18.66
2019-05-20T10:42:51.116Z,18.66
2019-05-20T10:45:19.885Z,19.08
2019-05-20T10:47:48.713Z,19.30
2019-05-20T10:50:17.518Z,19.40
2019-05-20T10:52:46.347Z,19.55
2019-05-20T10:55:15.287Z,20.03
2019-05-20T10:57:44.099Z,20.58
2019-05-20T11:00:13.102Z,20.59
2019-05-20T11:02:41.931Z,20.25
2019-05-20T11:05:10.777Z,20.17
2019-05-20T11:07:39.658Z,20.48
2019-05-20T11:10:10.391Z,20.71
2019-05-20T11:12:39.149Z,20.97
2019-05-20T11:15:11.338Z,21.14
2019-05-20T11:17:40.147Z,21.58
2019-05-20T11:20:11.376Z,21.38
2019-05-20T11:22:40.190Z,21.36
2019-05-20T11:25:09.250Z,21.25
2019-05-20T11:27:37.991Z,21.08
2019-05-20T11:30:10.627Z,22.40
2019-05-20T11:32:39.327Z,22.71
2019-05-20T11:35:09.535Z,22.33
2019-05-20T11:37:38.445Z,22.30
2019-05-20T11:40:09.329Z,21.85
2019-05-20T11:42:38.453Z,22.15
2019-05-20T11:45:09.972Z,22.34
2019-05-20T11:47:38.751Z,22.15
2019-05-20T11:50:09.888Z,22.15
2019-05-20T11:52:38.846Z,22.21
2019-05-20T11:55:08.911Z,22.45
2019-05-20T11:57:37.788Z,22.63
2019-05-20T12:00:09.022Z,23.32
2019-05-20T12:02:38.667Z,23.10
2019-05-20T12:05:09.045Z,22.84
2019-05-20T12:07:37.717Z,22.72
2019-05-20T12:10:11.254Z,22.44
2019-05-20T12:12:39.997Z,22.52
2019-05-20T12:15:10.026Z,22.69
2019-05-20T12:17:38.786Z,22.65
2019-05-20T12:20:11.923Z,22.64
2019-05-20T12:22:40.614Z,22.92
2019-05-20T12:25:10.152Z,23.07
2019-05-20T12:27:38.919Z,23.32
2019-05-20T12:30:08.213Z,23.15
2019-05-20T12:32:37.081Z,23.11
2019-05-20T12:35:08.209Z,23.08
2019-05-20T12:37:38.736Z,23.07
2019-05-20T12:40:09.138Z,23.65
2019-05-20T12:42:38.474Z,24.59
2019-05-20T12:45:10.243Z,24.59
2019-05-20T12:47:39.108Z,24.71
2019-05-20T12:50:10.276Z,24.84
2019-05-20T12:52:39.034Z,25.06
2019-05-20T12:55:10.543Z,24.92
2019-05-20T12:57:39.309Z,24.20
2019-05-20T13:00:11.373Z,23.77
2019-05-20T13:02:43.964Z,23.65
2019-05-20T13:05:13.438Z,23.92
2019-05-20T13:07:42.248Z,24.50
2019-05-20T13:10:28.237Z,24.33
2019-05-20T13:12:43.045Z,23.90
2019-05-20T13:15:12.494Z,23.58
2019-05-20T13:17:44.626Z,23.53
2019-05-20T13:20:11.948Z,23.75
2019-05-20T13:22:40.686Z,23.82
2019-05-20T13:25:09.446Z,24.02
2019-05-20T13:27:38.202Z,24.08
2019-05-20T13:30:08.844Z,24.08
2019-05-20T13:32:37.599Z,24.19
2019-05-20T13:35:07.653Z,24.40
2019-05-20T13:37:36.411Z,24.12
2019-05-20T13:40:07.580Z,24.03
2019-05-20T13:42:37.052Z,23.82
2019-05-20T13:45:08.857Z,23.39
2019-05-20T13:47:37.625Z,23.09
2019-05-20T13:50:08.652Z,23.51
2019-05-20T13:52:37.462Z,23.32
2019-05-20T13:55:06.462Z,23.86
2019-05-20T13:57:35.312Z,24.38
2019-05-20T14:00:05.659Z,23.72
2019-05-20T14:02:34.416Z,23.80
2019-05-20T14:05:03.219Z,24.40
2019-05-20T14:07:32.133Z,24.28
2019-05-20T14:10:00.895Z,24.31
2019-05-20T14:12:29.662Z,24.64
2019-05-20T14:14:58.415Z,23.94
2019-05-20T14:17:27.673Z,23.62
2019-05-20T14:19:56.534Z,23.62
2019-05-20T14:22:25.344Z,23.49
2019-05-20T14:24:54.112Z,23.59
2019-05-20T14:27:22.857Z,23.29
2019-05-20T14:29:51.654Z,23.17
2019-05-20T14:32:20.431Z,23.16
2019-05-20T14:34:49.220Z,23.35
2019-05-20T14:37:18.024Z,23.73
2019-05-20T14:39:46.956Z,23.57
2019-05-20T14:42:16.701Z,23.90
2019-05-20T14:44:45.488Z,23.59
2019-05-20T14:47:14.418Z,23.48
2019-05-20T14:49:45.969Z,23.60
2019-05-20T14:52:16.230Z,24.00
2019-05-20T14:54:46.860Z,23.85
2019-05-20T14:57:15.691Z,23.88
2019-05-20T14:59:47.430Z,24.12
2019-05-20T15:02:16.182Z,23.94
2019-05-20T15:04:44.977Z,23.59
2019-05-20T15:07:28.592Z,23.42
2019-05-20T15:09:44.357Z,23.73
2019-05-20T15:12:13.184Z,24.19
2019-05-20T15:14:42.637Z,24.12
2019-05-20T15:17:20.891Z,23.76
2019-05-20T15:19:49.799Z,23.62
2019-05-20T15:22:18.634Z,23.57
2019-05-20T15:24:47.411Z,23.14
2019-05-20T15:27:16.175Z,23.14
2019-05-20T15:29:44.910Z,23.11
2019-05-20T15:32:13.699Z,23.26
2019-05-20T15:34:42.466Z,22.70
2019-05-20T15:37:11.223Z,22.76
2019-05-20T15:39:39.979Z,22.41
2019-05-20T15:42:08.783Z,22.17
2019-05-20T15:44:37.549Z,22.20
2019-05-20T15:47:06.278Z,21.99
2019-05-20T15:49:35.051Z,22.15
2019-05-20T15:52:03.810Z,22.18
2019-05-20T15:54:32.599Z,22.17
2019-05-20T15:57:01.372Z,22.18
2019-05-20T15:59:44.831Z,22.19
2019-05-20T16:02:00.585Z,22.35
2019-05-20T16:04:29.255Z,22.33
2019-05-20T16:07:00.289Z,22.32
2019-05-20T16:09:28.469Z,22.39
2019-05-20T16:11:57.206Z,22.33
2019-05-20T16:14:25.902Z,22.12
2019-05-20T16:16:54.687Z,21.92
2019-05-20T16:19:23.450Z,22.04
2019-05-20T16:21:52.190Z,22.01
2019-05-20T16:24:20.952Z,21.96
2019-05-20T16:26:49.743Z,21.84
2019-05-20T16:29:18.560Z,21.69
2019-05-20T16:31:47.324Z,21.40
2019-05-20T16:34:16.213Z,21.23
2019-05-20T16:36:44.997Z,21.39
2019-05-20T16:39:13.749Z,21.16
2019-05-20T16:41:42.608Z,21.08
2019-05-20T16:44:11.354Z,21.23
2019-05-20T16:46:40.246Z,21.39
2019-05-20T16:49:09.098Z,21.45
2019-05-20T16:51:37.932Z,21.55
2019-05-20T16:54:06.715Z,21.40
2019-05-20T16:56:35.458Z,21.47
2019-05-20T16:59:04.236Z,21.49
2019-05-20T17:01:45.554Z,20.83
2019-05-20T17:04:03.501Z,21.27
2019-05-20T17:06:32.237Z,21.25
2019-05-20T17:09:01.054Z,21.17
2019-05-20T17:11:29.788Z,20.96
2019-05-20T17:13:58.554Z,20.83
2019-05-20T17:16:27.331Z,20.36
2019-05-20T17:18:56.090Z,20.30
2019-05-20T17:21:24.857Z,20.28
2019-05-20T17:23:53.695Z,20.13
2019-05-20T17:26:22.481Z,20.03
2019-05-20T17:28:51.293Z,19.92
2019-05-20T17:31:20.137Z,19.88
2019-05-20T17:33:48.939Z,19.79
2019-05-20T17:36:17.698Z,19.80
2019-05-20T17:38:46.530Z,19.58
2019-05-20T17:41:15.431Z,19.53
2019-05-20T17:43:44.199Z,19.38
2019-05-20T17:46:12.931Z,19.43
2019-05-20T17:48:41.804Z,19.42
2019-05-20T17:51:10.661Z,19.37
2019-05-20T17:53:39.448Z,19.13
2019-05-20T17:56:10.919Z,18.96
2019-05-20T17:58:39.792Z,18.87
2019-05-20T18:01:15.535Z,18.70
2019-05-20T18:03:39.086Z,18.78
2019-05-20T18:06:07.879Z,18.57
2019-05-20T18:08:38.210Z,18.31
2019-05-20T18:11:07.102Z,18.30
2019-05-20T18:13:35.915Z,18.31
2019-05-20T18:16:05.223Z,18.24
2019-05-20T18:18:34.022Z,18.09
2019-05-20T18:21:02.765Z,18.17
2019-05-20T18:23:31.528Z,18.08
2019-05-20T18:26:03.474Z,18.12
2019-05-20T18:28:30.925Z,18.13
2019-05-20T18:30:59.666Z,18.01
2019-05-20T18:33:28.397Z,17.76
2019-05-20T18:35:57.092Z,17.77
2019-05-20T18:38:25.862Z,17.83
2019-05-20T18:40:54.815Z,16.22
2019-05-20T18:43:23.577Z,17.69
2019-05-20T18:45:52.388Z,17.42
2019-05-20T18:48:21.275Z,17.51
2019-05-20T18:50:50.023Z,17.46
2019-05-20T18:53:18.761Z,17.37
2019-05-20T18:55:47.547Z,17.31
2019-05-20T18:58:16.685Z,17.22
2019-05-20T19:00:48.121Z,17.22
2019-05-20T19:03:17.040Z,17.14
2019-05-20T19:05:46.027Z,17.01
2019-05-20T19:08:14.908Z,16.95
2019-05-20T19:10:43.733Z,16.85
2019-05-20T19:13:12.601Z,16.72
2019-05-20T19:15:41.501Z,16.68
2019-05-20T19:18:10.258Z,16.61
2019-05-20T19:20:48.529Z,16.58
2019-05-20T19:23:17.710Z,16.57
2019-05-20T19:25:46.505Z,16.54
2019-05-20T19:28:15.254Z,16.41
2019-05-20T19:30:44.050Z,16.37
2019-05-20T19:33:12.884Z,16.37
2019-05-20T19:35:41.689Z,16.34
2019-05-20T19:38:10.431Z,16.30
2019-05-20T19:40:39.209Z,16.23
2019-05-20T19:43:08.021Z,16.23
2019-05-20T19:45:36.783Z,16.33
2019-05-20T19:48:06.543Z,16.15
2019-05-20T19:50:35.290Z,15.93
2019-05-20T19:53:04.069Z,16.07
2019-05-20T19:55:33.162Z,16.04
2019-05-20T19:58:01.901Z,15.98
2019-05-20T20:00:30.642Z,15.97
2019-05-20T20:02:59.433Z,15.94
2019-05-20T20:05:31.531Z,15.98
2019-05-20T20:08:00.317Z,15.84
2019-05-20T20:10:29.073Z,15.93
2019-05-20T20:12:57.984Z,15.92
2019-05-20T20:15:26.737Z,15.84
2019-05-20T20:17:55.500Z,15.81
2019-05-20T20:20:24.286Z,15.84
2019-05-20T20:22:53.044Z,15.86
2019-05-20T20:25:21.766Z,15.79
2019-05-20T20:27:50.547Z,15.69
2019-05-20T20:30:19.383Z,15.69
2019-05-20T20:32:49.249Z,15.72
2019-05-20T20:35:19.328Z,15.69
2019-05-20T20:37:48.103Z,15.66
2019-05-20T20:40:18.861Z,15.54
2019-05-20T20:42:47.974Z,15.51
2019-05-20T20:45:17.111Z,15.47
2019-05-20T20:47:46.006Z,15.44
2019-05-20T20:50:16.454Z,15.41
2019-05-20T20:52:46.321Z,15.33
2019-05-20T20:55:16.256Z,15.45
2019-05-20T20:57:45.171Z,15.37
2019-05-20T21:00:14.402Z,15.41
2019-05-20T21:02:52.602Z,15.31
2019-05-20T21:05:13.997Z,15.34
2019-05-20T21:07:42.883Z,15.37
2019-05-20T21:10:12.240Z,15.36
2019-05-20T21:12:41.115Z,15.44
2019-05-20T21:15:10.522Z,15.37
2019-05-20T21:17:39.173Z,15.37
2019-05-20T21:20:09.143Z,15.30
2019-05-20T21:22:38.617Z,15.28
2019-05-20T21:25:08.467Z,15.23
2019-05-20T21:27:37.278Z,15.23
2019-05-20T21:30:10.415Z,15.24
2019-05-20T21:32:39.205Z,15.24
2019-05-20T21:35:07.977Z,15.28
2019-05-20T21:37:36.845Z,15.33
2019-05-20T21:40:06.282Z,15.16
2019-05-20T21:42:35.032Z,15.14
2019-05-20T21:45:05.439Z,15.06
2019-05-20T21:47:34.319Z,14.55
2019-05-20T21:50:03.064Z,14.80
2019-05-20T21:52:31.812Z,14.79
2019-05-20T21:55:00.694Z,14.76
2019-05-20T21:57:29.428Z,14.72
2019-05-20T21:59:58.155Z,14.67
2019-05-20T22:02:27.083Z,14.77
2019-05-20T22:04:55.951Z,14.68
2019-05-20T22:07:24.765Z,14.64
2019-05-20T22:09:53.521Z,14.53
2019-05-20T22:12:22.272Z,14.55
2019-05-20T22:14:52.815Z,14.51
2019-05-20T22:17:21.607Z,14.38
2019-05-20T22:19:50.390Z,14.29
2019-05-20T22:22:37.022Z,14.28
2019-05-20T22:25:06.019Z,14.25
2019-05-20T22:27:34.761Z,14.16
2019-05-20T22:30:04.944Z,14.21
2019-05-20T22:32:33.696Z,14.14
2019-05-20T22:35:02.431Z,14.03
2019-05-20T22:37:31.189Z,14.08
2019-05-20T22:39:59.987Z,14.08
2019-05-20T22:42:28.809Z,14.23
2019-05-20T22:44:57.645Z,14.22
2019-05-20T22:47:27.435Z,14.15
2019-05-20T22:49:56.870Z,14.16
2019-05-20T22:52:34.997Z,14.15
2019-05-20T22:55:07.409Z,14.12
2019-05-20T22:57:37.280Z,14.10
2019-05-20T23:00:07.165Z,14.10
2019-05-20T23:02:36.629Z,14.12
2019-05-20T23:05:08.940Z,14.13
2019-05-20T23:07:38.447Z,14.10
2019-05-20T23:10:10.820Z,14.07
2019-05-20T23:12:40.599Z,14.10
2019-05-20T23:15:10.447Z,14.13
2019-05-20T23:17:41.312Z,14.11
2019-05-20T23:20:11.104Z,14.09
2019-05-20T23:22:40.590Z,14.15
2019-05-20T23:25:10.197Z,14.10
2019-05-20T23:27:39.881Z,14.16
2019-05-20T23:30:09.786Z,14.16
2019-05-20T23:32:39.278Z,14.14
2019-05-20T23:35:09.115Z,14.08
2019-05-20T23:37:38.617Z,14.11
2019-05-20T23:40:08.420Z,14.09
2019-05-20T23:42:37.908Z,14.10
2019-05-20T23:45:10.227Z,14.06
2019-05-20T23:47:39.014Z,14.08
2019-05-20T23:50:09.060Z,14.04
2019-05-20T23:52:37.793Z,14.04
2019-05-20T23:55:09.123Z,13.16
2019-05-20T23:57:37.930Z,14.01
